Time;durP1;ratioP1;P1;durP2;ratioP2;P2;SDS_P1;SDS_P2;PMS_P1;PMS_P2;Temp;Humidity;BMP_temperature;BMP_pressure;BME280_temperature;BME280_humidity;BME280_pressure;Samples;Min_cycle;Max_cycle;Signal;HPM_P1;HPM_P2
2022/10/20 00:01:54;;;;;;;12.10;2.65;;;;;;;;;;4993710;28;20496;-64
2022/10/20 00:04:21;;;;;;;10.35;2.72;;;;;;;;;;4993702;28;20034;-67
2022/10/20 00:06:48;;;;;;;8.57;2.40;;;;;;;;;;4993601;28;20026;-65
2022/10/20 00:09:15;;;;;;;15.25;3.05;;;;;;;;;;4993558;28;20042;-67
2022/10/20 00:11:44;;;;;;;12.23;2.70;;;;;;;;;;4993342;28;20026;-67
2022/10/20 00:14:11;;;;;;;18.73;2.67;;;;;;;;;;4993304;28;20037;-67
2022/10/20 00:16:39;;;;;;;15.68;2.72;;;;;;;;;;4993591;28;20097;-68
2022/10/20 00:19:06;;;;;;;10.20;2.75;;;;;;;;;;4993436;28;20028;-69
2022/10/20 00:21:33;;;;;;;14.52;3.20;;;;;;;;;;4992674;28;20499;-68
2022/10/20 00:24:00;;;;;;;12.43;3.30;;;;;;;;;;4993321;28;20109;-68
2022/10/20 00:26:28;;;;;;;14.95;2.60;;;;;;;;;;4992798;28;20042;-68
2022/10/20 00:28:56;;;;;;;15.52;2.47;;;;;;;;;;4992627;28;20109;-68
2022/10/20 00:31:23;;;;;;;16.92;3.70;;;;;;;;;;4993074;28;20030;-68
2022/10/20 00:33:50;;;;;;;17.27;2.90;;;;;;;;;;4992601;28;20030;-68
2022/10/20 00:36:18;;;;;;;15.23;3.08;;;;;;;;;;4992698;28;20054;-68
2022/10/20 00:38:45;;;;;;;14.82;2.72;;;;;;;;;;4993231;28;20061;-68
2022/10/20 00:41:13;;;;;;;14.82;3.05;;;;;;;;;;4993222;28;20507;-68
2022/10/20 00:43:45;;;;;;;12.43;2.53;;;;;;;;;;4993561;28;20023;-67
2022/10/20 00:46:13;;;;;;;9.23;2.67;;;;;;;;;;4992130;28;20469;-67
2022/10/20 00:48:42;;;;;;;17.98;3.17;;;;;;;;;;4993431;28;20117;-67
2022/10/20 00:51:09;;;;;;;17.45;3.45;;;;;;;;;;4992541;28;20034;-67
2022/10/20 00:53:36;;;;;;;15.70;3.22;;;;;;;;;;4993382;28;20040;-67
2022/10/20 00:56:03;;;;;;;18.02;3.45;;;;;;;;;;4991841;28;20028;-67
2022/10/20 00:58:30;;;;;;;16.13;3.78;;;;;;;;;;4992743;28;20027;-67
2022/10/20 01:00:58;;;;;;;17.73;3.20;;;;;;;;;;4992296;28;20520;-67
2022/10/20 01:03:34;;;;;;;16.35;3.00;;;;;;;;;;4992669;28;20022;-67
2022/10/20 01:06:01;;;;;;;15.48;3.45;;;;;;;;;;4992341;28;20096;-67
2022/10/20 01:08:28;;;;;;;19.60;3.40;;;;;;;;;;4992609;28;20037;-67
2022/10/20 01:11:01;;;;;;;17.77;3.25;;;;;;;;;;4992801;28;20035;-67
2022/10/20 01:13:35;;;;;;;15.48;3.22;;;;;;;;;;4991614;28;20050;-67
2022/10/20 01:16:05;;;;;;;15.27;3.58;;;;;;;;;;5005436;28;20400;-68
2022/10/20 01:18:44;;;;;;;21.83;3.45;;;;;;;;;;4991275;28;20447;-68
2022/10/20 01:21:14;;;;;;;13.38;3.20;;;;;;;;;;4988050;28;20034;-67
2022/10/20 01:23:55;;;;;;;14.63;3.25;;;;;;;;;;4991152;28;20034;-67
2022/10/20 01:26:31;;;;;;;17.95;3.70;;;;;;;;;;4992826;28;20030;-67
2022/10/20 01:28:58;;;;;;;14.73;3.22;;;;;;;;;;4978091;28;20086;-67
2022/10/20 01:31:43;;;;;;;14.95;2.92;;;;;;;;;;4973334;28;20148;-66
2022/10/20 01:34:31;;;;;;;17.77;3.42;;;;;;;;;;4982834;28;20453;-66
2022/10/20 01:36:58;;;;;;;26.27;4.30;;;;;;;;;;4983287;28;20049;-67
2022/10/20 01:39:30;;;;;;;32.22;4.63;;;;;;;;;;4985655;28;20117;-67
2022/10/20 01:42:03;;;;;;;24.65;4.72;;;;;;;;;;4983066;28;20045;-67
2022/10/20 01:44:32;;;;;;;21.80;4.72;;;;;;;;;;4981761;28;20045;-67
2022/10/20 01:47:00;;;;;;;28.00;4.70;;;;;;;;;;4977213;28;20038;-66
2022/10/20 01:49:27;;;;;;;27.10;4.45;;;;;;;;;;4990318;28;20125;-66
2022/10/20 01:51:55;;;;;;;24.95;4.25;;;;;;;;;;4988492;28;20103;-66
2022/10/20 01:54:22;;;;;;;27.23;4.68;;;;;;;;;;4987921;28;20142;-66
2022/10/20 01:56:51;;;;;;;24.75;5.13;;;;;;;;;;4986393;28;21641;-67
2022/10/20 01:59:18;;;;;;;21.80;4.60;;;;;;;;;;4988567;28;20123;-66
2022/10/20 02:01:51;;;;;;;19.30;3.75;;;;;;;;;;4989023;28;20038;-66
2022/10/20 02:04:23;;;;;;;21.17;4.57;;;;;;;;;;4987810;28;20037;-66
2022/10/20 02:06:56;;;;;;;20.25;4.28;;;;;;;;;;4988107;28;20039;-67
2022/10/20 02:09:30;;;;;;;24.73;4.57;;;;;;;;;;4982032;28;20030;-68
2022/10/20 02:12:03;;;;;;;23.20;4.82;;;;;;;;;;4986962;28;20030;-67
2022/10/20 02:14:32;;;;;;;20.20;4.45;;;;;;;;;;4983760;28;20026;-68
2022/10/20 02:17:00;;;;;;;24.95;4.93;;;;;;;;;;4972818;28;20392;-68
2022/10/20 02:19:30;;;;;;;24.20;4.82;;;;;;;;;;4987152;28;20026;-69
2022/10/20 02:21:58;;;;;;;27.85;4.60;;;;;;;;;;4989707;28;20026;-67
2022/10/20 02:24:27;;;;;;;23.45;4.38;;;;;;;;;;4990011;28;20116;-67
2022/10/20 02:26:56;;;;;;;20.52;4.30;;;;;;;;;;4991682;28;20030;-68
2022/10/20 02:29:26;;;;;;;17.85;4.00;;;;;;;;;;4991794;28;20031;-68
2022/10/20 02:31:53;;;;;;;16.55;4.10;;;;;;;;;;4992278;28;20030;-67
2022/10/20 02:34:20;;;;;;;26.58;4.03;;;;;;;;;;4992255;28;20109;-67
2022/10/20 02:36:46;;;;;;;15.45;4.05;;;;;;;;;;4991871;28;20086;-67
2022/10/20 02:39:13;;;;;;;15.10;3.80;;;;;;;;;;4991724;28;20034;-67
2022/10/20 02:41:40;;;;;;;16.88;3.70;;;;;;;;;;4989928;28;20088;-68
2022/10/20 02:44:07;;;;;;;14.77;4.20;;;;;;;;;;4986655;28;20026;-68
2022/10/20 02:46:34;;;;;;;13.75;3.78;;;;;;;;;;4982842;28;20027;-67
2022/10/20 02:49:01;;;;;;;15.43;3.97;;;;;;;;;;4990732;28;20026;-67
2022/10/20 02:51:28;;;;;;;17.40;3.58;;;;;;;;;;4993072;28;20477;-67
2022/10/20 02:53:55;;;;;;;14.35;3.88;;;;;;;;;;4993401;28;20397;-67
2022/10/20 02:56:22;;;;;;;9.45;3.42;;;;;;;;;;4993532;28;20097;-67
2022/10/20 02:58:49;;;;;;;17.55;4.28;;;;;;;;;;4995189;28;20026;-66
2022/10/20 03:01:16;;;;;;;20.75;4.07;;;;;;;;;;4983008;28;20038;-66
2022/10/20 03:03:43;;;;;;;14.82;3.15;;;;;;;;;;4979561;28;20030;-66
2022/10/20 03:06:12;;;;;;;15.55;3.38;;;;;;;;;;4984514;28;20381;-66
2022/10/20 03:08:39;;;;;;;12.93;3.25;;;;;;;;;;4983695;28;20019;-66
2022/10/20 03:11:06;;;;;;;14.05;3.13;;;;;;;;;;4983878;28;20050;-67
2022/10/20 03:13:33;;;;;;;12.88;3.40;;;;;;;;;;4982337;28;20030;-67
2022/10/20 03:16:01;;;;;;;13.02;3.70;;;;;;;;;;4976505;28;20038;-67
2022/10/20 03:18:28;;;;;;;15.23;3.30;;;;;;;;;;4975787;28;20397;-67
2022/10/20 03:20:55;;;;;;;15.90;3.30;;;;;;;;;;4975898;28;20109;-67
2022/10/20 03:23:22;;;;;;;10.90;3.00;;;;;;;;;;4975800;28;20045;-67
2022/10/20 03:25:49;;;;;;;13.35;3.40;;;;;;;;;;4975881;28;20031;-67
2022/10/20 03:28:16;;;;;;;12.63;3.05;;;;;;;;;;4975814;28;20031;-67
2022/10/20 03:30:42;;;;;;;7.78;2.85;;;;;;;;;;4975412;28;20058;-67
2022/10/20 03:33:09;;;;;;;8.02;3.22;;;;;;;;;;4975649;28;20031;-68
2022/10/20 03:35:36;;;;;;;13.27;3.08;;;;;;;;;;4975509;28;20058;-67
2022/10/20 03:38:03;;;;;;;11.25;3.13;;;;;;;;;;4975545;28;20030;-67
2022/10/20 03:40:30;;;;;;;11.68;3.10;;;;;;;;;;4975493;28;20061;-67
2022/10/20 03:42:57;;;;;;;10.27;3.33;;;;;;;;;;4975427;28;20756;-67
2022/10/20 03:45:24;;;;;;;9.05;2.70;;;;;;;;;;4975547;28;20098;-67
2022/10/20 03:47:51;;;;;;;8.98;2.65;;;;;;;;;;4975503;28;20026;-67
2022/10/20 03:50:18;;;;;;;9.88;3.13;;;;;;;;;;4975380;28;20090;-67
2022/10/20 03:52:47;;;;;;;9.70;3.25;;;;;;;;;;4975173;28;20031;-67
2022/10/20 03:55:15;;;;;;;8.70;2.85;;;;;;;;;;4975397;28;20085;-67
2022/10/20 03:57:42;;;;;;;8.40;2.67;;;;;;;;;;4974386;28;20077;-67
2022/10/20 04:00:09;;;;;;;7.82;2.47;;;;;;;;;;4975127;28;20038;-67
2022/10/20 04:02:37;;;;;;;10.18;2.65;;;;;;;;;;4975141;28;20397;-67
2022/10/20 04:05:05;;;;;;;7.95;2.72;;;;;;;;;;4975002;28;20103;-68
2022/10/20 04:07:32;;;;;;;7.78;2.72;;;;;;;;;;4975148;28;20047;-67
2022/10/20 04:10:01;;;;;;;8.13;2.60;;;;;;;;;;4974905;28;20501;-67
2022/10/20 04:12:28;;;;;;;10.07;2.70;;;;;;;;;;4975003;28;20027;-67
2022/10/20 04:14:55;;;;;;;6.05;2.42;;;;;;;;;;4974675;28;20027;-67
2022/10/20 04:17:22;;;;;;;6.32;2.42;;;;;;;;;;4974912;28;20507;-67
2022/10/20 04:19:49;;;;;;;5.43;2.60;;;;;;;;;;4974849;28;20485;-67
2022/10/20 04:22:16;;;;;;;8.60;2.90;;;;;;;;;;4974915;28;20026;-68
2022/10/20 04:24:43;;;;;;;6.10;2.22;;;;;;;;;;4974841;28;20499;-67
2022/10/20 04:27:10;;;;;;;7.07;2.10;;;;;;;;;;4974476;28;20031;-67
2022/10/20 04:29:37;;;;;;;9.05;2.47;;;;;;;;;;4974494;28;20038;-67
2022/10/20 04:32:04;;;;;;;6.88;2.28;;;;;;;;;;4974790;28;20031;-67
2022/10/20 04:34:31;;;;;;;8.48;2.22;;;;;;;;;;4974628;28;20026;-67
2022/10/20 04:36:58;;;;;;;6.03;2.40;;;;;;;;;;4974420;28;20050;-67
2022/10/20 04:39:25;;;;;;;6.32;1.90;;;;;;;;;;4974223;28;20039;-68
2022/10/20 04:41:52;;;;;;;8.00;2.33;;;;;;;;;;4974528;28;20153;-67
2022/10/20 04:44:19;;;;;;;5.85;2.10;;;;;;;;;;4974375;28;20046;-67
2022/10/20 04:46:46;;;;;;;5.50;2.00;;;;;;;;;;4974407;28;20110;-67
2022/10/20 04:49:13;;;;;;;6.85;2.08;;;;;;;;;;4974080;28;20039;-67
2022/10/20 04:51:39;;;;;;;5.72;2.40;;;;;;;;;;4974151;28;20046;-67
2022/10/20 04:54:06;;;;;;;6.15;1.92;;;;;;;;;;4974327;28;20504;-67
2022/10/20 04:56:33;;;;;;;5.38;2.40;;;;;;;;;;4974195;28;20038;-67
2022/10/20 04:59:01;;;;;;;8.40;2.47;;;;;;;;;;4974044;28;20035;-67
2022/10/20 05:01:29;;;;;;;8.13;2.30;;;;;;;;;;4973996;28;20041;-67
2022/10/20 05:03:56;;;;;;;3.22;1.83;;;;;;;;;;4972677;28;20445;-67
2022/10/20 05:06:28;;;;;;;5.60;2.00;;;;;;;;;;4974150;28;20041;-67
2022/10/20 05:08:57;;;;;;;6.00;1.80;;;;;;;;;;4973887;28;20066;-67
2022/10/20 05:11:25;;;;;;;8.73;2.10;;;;;;;;;;4974086;28;20046;-67
2022/10/20 05:13:52;;;;;;;7.53;2.33;;;;;;;;;;4973964;28;20030;-67
2022/10/20 05:16:19;;;;;;;5.45;1.88;;;;;;;;;;4973792;28;20035;-67
2022/10/20 05:18:47;;;;;;;3.83;1.83;;;;;;;;;;4973911;28;20027;-67
2022/10/20 05:21:15;;;;;;;5.80;1.88;;;;;;;;;;4973781;28;20114;-67
2022/10/20 05:23:42;;;;;;;6.18;1.90;;;;;;;;;;4973833;28;20031;-67
2022/10/20 05:26:11;;;;;;;3.55;1.67;;;;;;;;;;4973821;28;20081;-67
2022/10/20 05:28:38;;;;;;;4.05;1.77;;;;;;;;;;4973677;28;20101;-67
2022/10/20 05:31:06;;;;;;;4.18;1.85;;;;;;;;;;4973446;28;20034;-67
2022/10/20 05:33:34;;;;;;;5.05;1.77;;;;;;;;;;4972272;28;20525;-67
2022/10/20 05:36:00;;;;;;;5.00;2.10;;;;;;;;;;4973497;28;20047;-67
2022/10/20 05:38:27;;;;;;;4.45;1.67;;;;;;;;;;4974692;28;20030;-67
2022/10/20 05:40:54;;;;;;;4.22;1.88;;;;;;;;;;4992391;28;20030;-67
2022/10/20 05:43:21;;;;;;;5.35;1.80;;;;;;;;;;4992800;28;20038;-67
2022/10/20 05:45:53;;;;;;;4.18;1.83;;;;;;;;;;4992833;28;20030;-67
2022/10/20 05:48:20;;;;;;;2.50;1.50;;;;;;;;;;4993154;28;20065;-67
2022/10/20 05:50:47;;;;;;;2.15;1.50;;;;;;;;;;4992615;28;20026;-67
2022/10/20 05:53:14;;;;;;;4.25;1.60;;;;;;;;;;4992764;28;20023;-67
2022/10/20 05:55:41;;;;;;;7.90;1.67;;;;;;;;;;4992637;28;20118;-67
2022/10/20 05:58:08;;;;;;;3.67;1.70;;;;;;;;;;4992614;28;20030;-67
2022/10/20 06:00:40;;;;;;;4.65;1.60;;;;;;;;;;4992641;28;20031;-67
2022/10/20 06:03:07;;;;;;;;;;;;;;;;;;4991816;28;20060;-66
2022/10/20 06:05:34;;;;;;;3.33;1.40;;;;;;;;;;4992569;28;19949;-66
2022/10/20 06:08:01;;;;;;;3.38;1.60;;;;;;;;;;4992669;28;20093;-66
2022/10/20 06:10:28;;;;;;;5.45;2.00;;;;;;;;;;4992077;28;20042;-66
2022/10/20 06:12:55;;;;;;;3.88;1.70;;;;;;;;;;4992571;28;20037;-66
2022/10/20 06:15:22;;;;;;;3.03;1.40;;;;;;;;;;4992675;28;20038;-66
2022/10/20 06:17:48;;;;;;;4.43;1.70;;;;;;;;;;4992614;28;20033;-66
2022/10/20 06:20:15;;;;;;;3.50;1.67;;;;;;;;;;4994732;28;20036;-66
2022/10/20 06:22:42;;;;;;;3.90;1.70;;;;;;;;;;4996466;28;20393;-66
2022/10/20 06:25:09;;;;;;;3.85;1.48;;;;;;;;;;4996375;28;20121;-66
2022/10/20 06:27:36;;;;;;;3.92;1.88;;;;;;;;;;4996507;28;20026;-67
2022/10/20 06:30:03;;;;;;;3.63;1.50;;;;;;;;;;4996235;28;20049;-67
2022/10/20 06:32:30;;;;;;;3.65;1.80;;;;;;;;;;4996351;28;20030;-67
2022/10/20 06:34:57;;;;;;;5.95;2.15;;;;;;;;;;4996421;28;20026;-67
2022/10/20 06:37:24;;;;;;;6.82;2.97;;;;;;;;;;4996168;28;20042;-67
2022/10/20 06:39:51;;;;;;;5.13;2.15;;;;;;;;;;4996198;28;20037;-67
2022/10/20 06:42:18;;;;;;;3.90;1.80;;;;;;;;;;4996268;28;20556;-66
2022/10/20 06:44:45;;;;;;;3.22;1.77;;;;;;;;;;4996155;28;20058;-66
2022/10/20 06:47:12;;;;;;;7.38;2.30;;;;;;;;;;4996103;28;20026;-66
2022/10/20 06:49:39;;;;;;;3.88;1.90;;;;;;;;;;4996027;28;20397;-66
2022/10/20 06:52:06;;;;;;;2.95;1.95;;;;;;;;;;4996028;28;20065;-66
2022/10/20 06:54:33;;;;;;;3.13;1.80;;;;;;;;;;4995962;28;20026;-66
2022/10/20 06:57:00;;;;;;;3.95;2.25;;;;;;;;;;4995977;28;20026;-66
2022/10/20 06:59:27;;;;;;;4.43;2.28;;;;;;;;;;4995779;28;20033;-66
2022/10/20 07:01:53;;;;;;;4.30;1.85;;;;;;;;;;4995828;28;20496;-66
2022/10/20 07:04:20;;;;;;;4.15;2.10;;;;;;;;;;4995716;28;20026;-66
2022/10/20 07:06:47;;;;;;;4.53;2.20;;;;;;;;;;4995886;28;20034;-66
2022/10/20 07:09:16;;;;;;;5.22;2.38;;;;;;;;;;4995565;28;20022;-66
2022/10/20 07:11:43;;;;;;;4.07;2.10;;;;;;;;;;4995674;28;20123;-66
2022/10/20 07:14:12;;;;;;;4.35;1.85;;;;;;;;;;4995646;28;20034;-66
2022/10/20 07:16:39;;;;;;;3.47;1.88;;;;;;;;;;4995582;28;20038;-66
2022/10/20 07:19:06;;;;;;;4.03;1.98;;;;;;;;;;4995428;28;20054;-66
2022/10/20 07:21:35;;;;;;;3.17;1.95;;;;;;;;;;4995455;28;20034;-66
2022/10/20 07:24:02;;;;;;;4.80;2.00;;;;;;;;;;4995249;28;20520;-66
2022/10/20 07:26:30;;;;;;;4.57;2.00;;;;;;;;;;4995343;28;20576;-66
2022/10/20 07:28:58;;;;;;;5.50;2.33;;;;;;;;;;4995178;28;20089;-66
2022/10/20 07:31:33;;;;;;;3.25;2.05;;;;;;;;;;4994100;28;20057;-66
2022/10/20 07:34:01;;;;;;;4.07;2.38;;;;;;;;;;4995134;28;20493;-66
2022/10/20 07:36:29;;;;;;;5.45;2.58;;;;;;;;;;4995060;28;20051;-66
2022/10/20 07:38:57;;;;;;;4.53;2.10;;;;;;;;;;4995197;28;20038;-66
2022/10/20 07:41:25;;;;;;;7.32;2.65;;;;;;;;;;4995230;28;20534;-66
2022/10/20 07:43:52;;;;;;;4.30;2.35;;;;;;;;;;4995043;28;20031;-66
2022/10/20 07:46:19;;;;;;;3.33;2.15;;;;;;;;;;4995221;28;20026;-66
2022/10/20 07:48:46;;;;;;;4.28;1.90;;;;;;;;;;4994950;28;20027;-66
2022/10/20 07:51:13;;;;;;;3.03;2.00;;;;;;;;;;4994920;28;20125;-66
2022/10/20 07:53:41;;;;;;;3.67;2.40;;;;;;;;;;4995021;28;20492;-66
2022/10/20 07:56:08;;;;;;;4.47;1.90;;;;;;;;;;4994530;28;20053;-67
2022/10/20 07:58:35;;;;;;;3.00;2.00;;;;;;;;;;5005705;28;20034;-66
2022/10/20 08:01:02;;;;;;;4.53;2.00;;;;;;;;;;4994543;28;20044;-66
2022/10/20 08:03:29;;;;;;;4.30;2.33;;;;;;;;;;4994869;28;20034;-66
2022/10/20 08:05:56;;;;;;;3.17;2.00;;;;;;;;;;4994516;28;20396;-66
2022/10/20 08:08:23;;;;;;;3.22;2.00;;;;;;;;;;4994652;28;20076;-66
2022/10/20 08:10:50;;;;;;;4.32;2.00;;;;;;;;;;4994462;28;20373;-67
2022/10/20 08:13:17;;;;;;;3.80;2.03;;;;;;;;;;4994666;28;20027;-67
2022/10/20 08:15:44;;;;;;;5.75;3.40;;;;;;;;;;4994507;28;20022;-67
2022/10/20 08:18:11;;;;;;;3.75;2.65;;;;;;;;;;4994576;28;20031;-67
2022/10/20 08:20:38;;;;;;;5.15;3.10;;;;;;;;;;4994472;28;20588;-66
2022/10/20 08:23:05;;;;;;;5.25;2.65;;;;;;;;;;4994325;28;20042;-66
2022/10/20 08:25:32;;;;;;;6.05;2.95;;;;;;;;;;4994380;28;20022;-66
2022/10/20 08:28:00;;;;;;;7.18;3.15;;;;;;;;;;4994272;28;20018;-66
2022/10/20 08:30:27;;;;;;;4.25;2.67;;;;;;;;;;5009077;28;20097;-66
2022/10/20 08:32:54;;;;;;;5.15;2.92;;;;;;;;;;4994222;28;20022;-66
2022/10/20 08:35:22;;;;;;;3.65;2.45;;;;;;;;;;4994218;28;20022;-66
2022/10/20 08:37:49;;;;;;;3.83;2.60;;;;;;;;;;4993985;28;20053;-66
2022/10/20 08:40:21;;;;;;;4.90;2.50;;;;;;;;;;4993837;28;20457;-66
2022/10/20 08:42:48;;;;;;;3.83;2.45;;;;;;;;;;4993715;28;20105;-66
2022/10/20 08:45:17;;;;;;;4.60;2.45;;;;;;;;;;4994002;28;20751;-66
2022/10/20 08:47:45;;;;;;;3.92;2.50;;;;;;;;;;4993968;28;20026;-66
2022/10/20 08:50:15;;;;;;;3.83;2.25;;;;;;;;;;4993744;28;20109;-66
2022/10/20 08:52:43;;;;;;;4.13;2.35;;;;;;;;;;4993748;28;20034;-66
2022/10/20 08:55:22;;;;;;;5.38;2.53;;;;;;;;;;4993857;28;20058;-66
2022/10/20 08:57:49;;;;;;;4.60;2.47;;;;;;;;;;4993757;28;20030;-66
2022/10/20 09:00:18;;;;;;;7.63;2.88;;;;;;;;;;4993610;28;20401;-66
2022/10/20 09:02:46;;;;;;;3.25;2.08;;;;;;;;;;4993640;28;20025;-66
2022/10/20 09:05:14;;;;;;;4.40;2.50;;;;;;;;;;4993627;28;20646;-66
2022/10/20 09:07:41;;;;;;;3.83;2.53;;;;;;;;;;4993681;28;20370;-66
2022/10/20 09:10:11;;;;;;;4.85;2.45;;;;;;;;;;4993344;28;20035;-66
2022/10/20 09:12:40;;;;;;;3.47;2.28;;;;;;;;;;4993490;28;20085;-66
2022/10/20 09:15:09;;;;;;;4.32;2.22;;;;;;;;;;4993521;28;20400;-66
2022/10/20 09:17:36;;;;;;;3.90;2.15;;;;;;;;;;4993288;28;20567;-66
2022/10/20 09:20:03;;;;;;;3.53;2.17;;;;;;;;;;4993121;28;20045;-66
2022/10/20 09:22:31;;;;;;;3.25;2.20;;;;;;;;;;4993224;28;20037;-66
2022/10/20 09:24:58;;;;;;;3.63;2.30;;;;;;;;;;4993300;28;20022;-66
2022/10/20 09:27:35;;;;;;;4.85;2.30;;;;;;;;;;4993231;28;20034;-66
2022/10/20 09:30:20;;;;;;;3.13;2.10;;;;;;;;;;4992659;28;20065;-67
2022/10/20 09:32:48;;;;;;;4.80;2.42;;;;;;;;;;4993057;28;20041;-67
2022/10/20 09:35:15;;;;;;;4.05;2.55;;;;;;;;;;4993080;28;20388;-67
2022/10/20 09:37:44;;;;;;;3.30;2.33;;;;;;;;;;4992655;28;20107;-67
2022/10/20 09:40:15;;;;;;;3.33;2.03;;;;;;;;;;4991303;28;20033;-67
2022/10/20 09:43:01;;;;;;;3.35;2.33;;;;;;;;;;4992939;28;20519;-67
2022/10/20 09:45:31;;;;;;;3.28;2.10;;;;;;;;;;4992948;28;20049;-67
2022/10/20 09:48:24;;;;;;;3.53;2.20;;;;;;;;;;4992918;28;20022;-67
2022/10/20 09:50:56;;;;;;;3.15;2.00;;;;;;;;;;4990842;28;20555;-67
2022/10/20 09:53:28;;;;;;;2.83;2.00;;;;;;;;;;4992513;28;20030;-67
2022/10/20 09:55:55;;;;;;;;;;;;;;;;;;4992874;28;20030;-67
2022/10/20 09:58:29;;;;;;;4.45;2.00;;;;;;;;;;4992792;28;20390;-68
2022/10/20 10:01:02;;;;;;;3.67;2.20;;;;;;;;;;4992724;28;20038;-67
2022/10/20 10:03:29;;;;;;;2.75;1.88;;;;;;;;;;4992687;28;20408;-67
2022/10/20 10:06:00;;;;;;;3.63;2.20;;;;;;;;;;4992692;28;20027;-67
2022/10/20 10:08:29;;;;;;;3.47;2.13;;;;;;;;;;4992711;28;20034;-67
2022/10/20 10:10:59;;;;;;;2.92;1.85;;;;;;;;;;4991210;28;20396;-67
2022/10/20 10:13:27;;;;;;;2.08;1.70;;;;;;;;;;4992599;28;20165;-67
2022/10/20 10:16:02;;;;;;;2.83;1.92;;;;;;;;;;4992644;28;20080;-67
2022/10/20 10:18:29;;;;;;;3.35;2.00;;;;;;;;;;4992394;28;20034;-66
2022/10/20 10:20:58;;;;;;;2.97;2.03;;;;;;;;;;4992423;28;20030;-66
2022/10/20 10:23:27;;;;;;;2.40;1.73;;;;;;;;;;4992523;28;20054;-66
2022/10/20 10:25:54;;;;;;;2.75;2.10;;;;;;;;;;4992468;28;20027;-66
2022/10/20 10:28:33;;;;;;;3.13;1.77;;;;;;;;;;4992498;28;20048;-66
2022/10/20 10:31:18;;;;;;;2.80;2.05;;;;;;;;;;4992401;28;20038;-66
2022/10/20 10:33:45;;;;;;;2.83;1.85;;;;;;;;;;4992356;28;20109;-66
2022/10/20 10:36:30;;;;;;;2.45;1.55;;;;;;;;;;4992138;28;20119;-66
2022/10/20 10:38:58;;;;;;;2.20;1.60;;;;;;;;;;4992255;28;20097;-66
2022/10/20 10:41:25;;;;;;;2.70;1.65;;;;;;;;;;4992217;28;20038;-66
2022/10/20 10:44:05;;;;;;;3.38;1.98;;;;;;;;;;4992287;28;20417;-66
2022/10/20 10:46:43;;;;;;;2.42;1.80;;;;;;;;;;4992331;28;20465;-66
2022/10/20 10:49:23;;;;;;;2.22;1.48;;;;;;;;;;4990780;28;20405;-66
2022/10/20 10:51:50;;;;;;;2.28;1.60;;;;;;;;;;4992278;28;20022;-66
2022/10/20 10:54:43;;;;;;;3.17;1.80;;;;;;;;;;4979545;28;20026;-66
2022/10/20 10:57:28;;;;;;;3.55;1.92;;;;;;;;;;4972033;28;20106;-66
2022/10/20 10:59:57;;;;;;;2.45;1.70;;;;;;;;;;4972619;28;20031;-65
2022/10/20 11:02:27;;;;;;;2.80;1.70;;;;;;;;;;4975592;28;20034;-66
2022/10/20 11:05:12;;;;;;;2.78;1.63;;;;;;;;;;4991969;28;20031;-66
2022/10/20 11:07:46;;;;;;;3.35;1.88;;;;;;;;;;4995252;28;20393;-66
2022/10/20 11:10:31;;;;;;;3.42;1.83;;;;;;;;;;4995476;28;20034;-66
2022/10/20 11:13:13;;;;;;;6.68;1.67;;;;;;;;;;4995432;28;20034;-66
2022/10/20 11:15:49;;;;;;;4.65;1.63;;;;;;;;;;4995464;28;20035;-66
2022/10/20 11:18:19;;;;;;;2.70;1.40;;;;;;;;;;4995198;28;20030;-65
2022/10/20 11:20:46;;;;;;;4.68;1.55;;;;;;;;;;4989316;28;20027;-67
2022/10/20 11:23:16;;;;;;;6.53;1.83;;;;;;;;;;4990677;28;20031;-64
2022/10/20 11:25:57;;;;;;;6.43;1.70;;;;;;;;;;4988272;28;20034;-62
2022/10/20 11:28:31;;;;;;;5.15;1.90;;;;;;;;;;4995327;28;20810;-61
2022/10/20 11:30:59;;;;;;;8.65;1.90;;;;;;;;;;4994425;28;20085;-62
2022/10/20 11:33:36;;;;;;;5.95;1.67;;;;;;;;;;4983509;28;20030;-63
2022/10/20 11:36:08;;;;;;;5.55;1.50;;;;;;;;;;4980036;28;20050;-62
2022/10/20 11:38:35;;;;;;;7.88;1.77;;;;;;;;;;4974402;28;20050;-62
2022/10/20 11:41:02;;;;;;;3.25;1.40;;;;;;;;;;4975504;28;20030;-61
2022/10/20 11:43:46;;;;;;;4.93;1.40;;;;;;;;;;4974774;28;20039;-62
2022/10/20 11:46:15;;;;;;;4.95;1.52;;;;;;;;;;4982077;28;20046;-61
2022/10/20 11:48:46;;;;;;;4.13;1.45;;;;;;;;;;4985056;28;20110;-61
2022/10/20 11:51:15;;;;;;;7.40;1.58;;;;;;;;;;4989677;28;20034;-60
2022/10/20 11:54:18;;;;;;;6.80;1.83;;;;;;;;;;4991474;28;20045;-60
2022/10/20 11:56:58;;;;;;;6.88;1.63;;;;;;;;;;4924575;29;20031;-62
2022/10/20 11:59:25;;;;;;;13.75;1.90;;;;;;;;;;4969326;28;20093;-60
2022/10/20 12:01:59;;;;;;;15.93;1.65;;;;;;;;;;4977956;28;20035;-63
2022/10/20 12:04:49;;;;;;;6.28;1.92;;;;;;;;;;4991788;28;20022;-62
2022/10/20 12:07:19;;;;;;;18.88;1.77;;;;;;;;;;4973826;28;20050;-63
2022/10/20 12:09:52;;;;;;;14.82;1.88;;;;;;;;;;4990939;28;20034;-61
2022/10/20 12:12:22;;;;;;;18.42;1.88;;;;;;;;;;4993220;28;20018;-62
2022/10/20 12:14:59;;;;;;;21.10;2.08;;;;;;;;;;4991977;28;20499;-64
2022/10/20 12:17:33;;;;;;;17.63;2.20;;;;;;;;;;4992825;28;20076;-61
2022/10/20 12:20:18;;;;;;;21.20;1.80;;;;;;;;;;4982337;28;20030;-63
2022/10/20 12:22:46;;;;;;;14.77;1.88;;;;;;;;;;4980259;28;20026;-62
2022/10/20 12:25:26;;;;;;;18.60;2.22;;;;;;;;;;4987872;28;20058;-63
2022/10/20 12:28:11;;;;;;;42.67;3.05;;;;;;;;;;4980889;28;20030;-63
2022/10/20 12:30:38;;;;;;;28.25;2.70;;;;;;;;;;4984952;28;20077;-63
2022/10/20 12:33:25;;;;;;;32.58;2.55;;;;;;;;;;4983932;28;20057;-62
2022/10/20 12:36:10;;;;;;;19.13;2.03;;;;;;;;;;4961666;28;20053;-62
2022/10/20 12:38:37;;;;;;;18.58;1.60;;;;;;;;;;4984757;28;20139;-62
2022/10/20 12:41:04;;;;;;;12.40;1.70;;;;;;;;;;4978599;28;20502;-61
2022/10/20 12:43:36;;;;;;;16.95;1.88;;;;;;;;;;4991557;28;20038;-63
2022/10/20 12:46:09;;;;;;;16.27;1.95;;;;;;;;;;4984978;28;20042;-62
2022/10/20 12:48:40;;;;;;;18.83;2.30;;;;;;;;;;4980030;28;20034;-63
2022/10/20 12:51:08;;;;;;;17.55;1.63;;;;;;;;;;4984839;28;20046;-61
2022/10/20 12:53:35;;;;;;;19.17;2.47;;;;;;;;;;4974603;28;20390;-61
2022/10/20 12:56:08;;;;;;;18.77;1.80;;;;;;;;;;4983891;28;20033;-62
2022/10/20 12:58:36;;;;;;;20.42;2.30;;;;;;;;;;4986183;28;20029;-64
2022/10/20 13:01:05;;;;;;;14.05;1.83;;;;;;;;;;4983540;28;20082;-66
2022/10/20 13:03:32;;;;;;;20.67;1.90;;;;;;;;;;4983983;28;20065;-64
2022/10/20 13:05:59;;;;;;;30.60;2.20;;;;;;;;;;4976677;28;20031;-63
2022/10/20 13:08:26;;;;;;;26.00;2.28;;;;;;;;;;4986098;28;20385;-62
2022/10/20 13:10:53;;;;;;;24.75;2.90;;;;;;;;;;4991294;28;20483;-62
2022/10/20 13:13:20;;;;;;;17.73;2.05;;;;;;;;;;4992918;28;20034;-63
2022/10/20 13:15:47;;;;;;;23.05;2.10;;;;;;;;;;4993426;28;20779;-62
2022/10/20 13:18:18;;;;;;;12.85;1.88;;;;;;;;;;4991846;28;20034;-63
2022/10/20 13:20:45;;;;;;;13.75;1.88;;;;;;;;;;4992304;28;20734;-65
2022/10/20 13:23:14;;;;;;;25.73;2.20;;;;;;;;;;4992107;28;20026;-63
2022/10/20 13:25:44;;;;;;;26.98;2.17;;;;;;;;;;4993034;28;20488;-64
2022/10/20 13:28:17;;;;;;;20.85;2.08;;;;;;;;;;4984736;28;20073;-63
2022/10/20 13:30:52;;;;;;;17.20;1.77;;;;;;;;;;4991130;28;20440;-63
2022/10/20 13:33:26;;;;;;;18.95;1.98;;;;;;;;;;4992189;28;20481;-63
2022/10/20 13:36:08;;;;;;;20.83;1.90;;;;;;;;;;4989587;28;20138;-62
2022/10/20 13:38:47;;;;;;;16.67;1.83;;;;;;;;;;4992878;28;20061;-62
2022/10/20 13:41:22;;;;;;;11.88;2.00;;;;;;;;;;4992357;28;20264;-63
2022/10/20 13:43:55;;;;;;;14.45;1.83;;;;;;;;;;4992106;28;20514;-62
2022/10/20 13:46:31;;;;;;;12.43;1.90;;;;;;;;;;4992591;28;20388;-62
2022/10/20 13:49:10;;;;;;;16.60;1.85;;;;;;;;;;4992443;28;20027;-61
2022/10/20 13:51:58;;;;;;;11.80;1.70;;;;;;;;;;4991205;28;20044;-61
2022/10/20 13:54:27;;;;;;;10.38;1.50;;;;;;;;;;4991748;28;20109;-65
2022/10/20 13:56:55;;;;;;;13.07;1.75;;;;;;;;;;4992659;28;20480;-66
2022/10/20 13:59:23;;;;;;;13.63;1.65;;;;;;;;;;4992595;28;20504;-63
2022/10/20 14:01:54;;;;;;;15.50;2.03;;;;;;;;;;4992011;28;20035;-62
2022/10/20 14:04:27;;;;;;;14.15;1.58;;;;;;;;;;4991707;28;20041;-63
2022/10/20 14:06:55;;;;;;;12.07;1.70;;;;;;;;;;4991434;28;20546;-66
2022/10/20 14:09:23;;;;;;;12.85;1.90;;;;;;;;;;4991834;28;20038;-65
2022/10/20 14:11:56;;;;;;;11.15;1.63;;;;;;;;;;4991483;28;20105;-66
2022/10/20 14:14:24;;;;;;;11.88;1.50;;;;;;;;;;4987213;28;20038;-64
2022/10/20 14:16:57;;;;;;;12.43;1.85;;;;;;;;;;4991103;28;20022;-63
2022/10/20 14:19:27;;;;;;;13.75;1.60;;;;;;;;;;4992128;28;20029;-64
2022/10/20 14:21:56;;;;;;;12.02;1.65;;;;;;;;;;4990263;28;20818;-62
2022/10/20 14:24:37;;;;;;;11.85;1.50;;;;;;;;;;4991044;28;20034;-62
2022/10/20 14:27:05;;;;;;;13.65;1.88;;;;;;;;;;4990395;28;20480;-62
2022/10/20 14:29:37;;;;;;;9.98;1.60;;;;;;;;;;4990270;28;20032;-60
2022/10/20 14:32:05;;;;;;;9.90;1.92;;;;;;;;;;4989527;28;20048;-61
2022/10/20 14:34:36;;;;;;;16.02;2.28;;;;;;;;;;4988849;28;20027;-63
2022/10/20 14:37:05;;;;;;;12.63;1.63;;;;;;;;;;4990082;28;20043;-63
2022/10/20 14:39:40;;;;;;;11.82;1.58;;;;;;;;;;4990933;28;20485;-63
2022/10/20 14:42:26;;;;;;;17.05;1.65;;;;;;;;;;4991397;28;20033;-63
2022/10/20 14:44:56;;;;;;;18.38;2.28;;;;;;;;;;4994783;28;20027;-63
2022/10/20 14:47:23;;;;;;;15.18;2.00;;;;;;;;;;4994064;28;20037;-62
2022/10/20 14:49:52;;;;;;;15.68;2.58;;;;;;;;;;4994034;28;20041;-64
2022/10/20 14:52:18;;;;;;;20.15;3.05;;;;;;;;;;4994607;28;20030;-63
2022/10/20 14:54:47;;;;;;;17.00;3.47;;;;;;;;;;4993566;28;20034;-63